Time;durP1;ratioP1;P1;durP2;ratioP2;P2;SDS_P1;SDS_P2;PMS_P1;PMS_P2;Temp;Humidity;BMP_temperature;BMP_pressure;BME280_temperature;BME280_humidity;BME280_pressure;Samples;Min_cycle;Max_cycle;Signal;HPM_P1;HPM_P2
2021/05/10 00:01:55;;;;;;;1.98;1.05;;;;;;;;;;5093145;28;20429;-46
2021/05/10 00:04:21;;;;;;;1.67;0.80;;;;;;;;;;5093142;28;20042;-47
2021/05/10 00:06:47;;;;;;;1.77;1.10;;;;;;;;;;5092081;28;20028;-47
2021/05/10 00:09:13;;;;;;;1.48;1.30;;;;;;;;;;5072946;28;20467;-47
2021/05/10 00:11:39;;;;;;;2.33;1.15;;;;;;;;;;5072713;28;20040;-47
2021/05/10 00:14:06;;;;;;;2.92;1.20;;;;;;;;;;5082047;28;20012;-47
2021/05/10 00:16:32;;;;;;;3.30;1.10;;;;;;;;;;5093270;28;20105;-47
2021/05/10 00:18:59;;;;;;;2.30;1.15;;;;;;;;;;5093088;28;20501;-47
2021/05/10 00:21:25;;;;;;;1.85;1.05;;;;;;;;;;5093066;28;20024;-47
2021/05/10 00:23:51;;;;;;;2.25;1.40;;;;;;;;;;5092805;28;20358;-47
2021/05/10 00:26:17;;;;;;;1.55;1.02;;;;;;;;;;5092775;28;20024;-47
2021/05/10 00:28:43;;;;;;;7.82;1.40;;;;;;;;;;5092869;28;20453;-47
2021/05/10 00:31:09;;;;;;;2.97;1.15;;;;;;;;;;5092712;28;20042;-47
2021/05/10 00:33:35;;;;;;;1.20;0.90;;;;;;;;;;5093008;28;20020;-47
2021/05/10 00:36:01;;;;;;;1.85;1.20;;;;;;;;;;5095222;28;20342;-47
2021/05/10 00:38:27;;;;;;;4.35;1.23;;;;;;;;;;5097039;28;20024;-47
2021/05/10 00:40:53;;;;;;;2.30;1.20;;;;;;;;;;5096048;28;20120;-47
2021/05/10 00:43:19;;;;;;;0.90;0.90;;;;;;;;;;5096889;28;20110;-47
2021/05/10 00:45:47;;;;;;;1.88;1.00;;;;;;;;;;5097359;28;20032;-47
2021/05/10 00:48:13;;;;;;;2.38;1.48;;;;;;;;;;5096658;28;20335;-47
2021/05/10 00:50:39;;;;;;;1.58;0.90;;;;;;;;;;5096351;28;20031;-47
2021/05/10 00:53:05;;;;;;;4.13;1.50;;;;;;;;;;5096477;28;20394;-47
2021/05/10 00:55:32;;;;;;;2.00;1.30;;;;;;;;;;5096201;28;20023;-47
2021/05/10 00:58:02;;;;;;;5.15;1.85;;;;;;;;;;5096739;28;20085;-47
2021/05/10 01:00:29;;;;;;;5.07;2.15;;;;;;;;;;5096591;28;20024;-47
2021/05/10 01:02:55;;;;;;;2.08;1.60;;;;;;;;;;5096404;28;20024;-47
2021/05/10 01:05:21;;;;;;;2.15;1.13;;;;;;;;;;5096438;28;20028;-46
2021/05/10 01:07:47;;;;;;;3.78;1.30;;;;;;;;;;5096366;28;20023;-47
2021/05/10 01:10:15;;;;;;;2.03;1.83;;;;;;;;;;5095458;28;20115;-47
2021/05/10 01:12:41;;;;;;;3.95;1.33;;;;;;;;;;5096104;28;20371;-47
2021/05/10 01:15:09;;;;;;;1.88;1.42;;;;;;;;;;5096352;28;20030;-47
2021/05/10 01:17:36;;;;;;;1.52;1.00;;;;;;;;;;5096495;28;20103;-47
2021/05/10 01:20:04;;;;;;;4.13;1.45;;;;;;;;;;5096032;28;20035;-47
2021/05/10 01:22:49;;;;;;;2.38;1.30;;;;;;;;;;5095608;28;20039;-47
2021/05/10 01:25:26;;;;;;;1.50;1.10;;;;;;;;;;5096139;28;20016;-48
2021/05/10 01:27:52;;;;;;;1.23;1.10;;;;;;;;;;5096234;28;20020;-46
2021/05/10 01:30:26;;;;;;;1.65;1.20;;;;;;;;;;5095350;28;20061;-46
2021/05/10 01:32:53;;;;;;;2.47;1.40;;;;;;;;;;5095835;28;20039;-47
2021/05/10 01:35:20;;;;;;;1.75;1.30;;;;;;;;;;5095683;28;20103;-47
2021/05/10 01:37:46;;;;;;;1.60;1.30;;;;;;;;;;5095810;28;20020;-47
2021/05/10 01:40:13;;;;;;;2.38;1.40;;;;;;;;;;5095358;28;20042;-47
2021/05/10 01:42:39;;;;;;;2.80;1.20;;;;;;;;;;5083683;28;20021;-47
2021/05/10 01:45:06;;;;;;;2.88;1.15;;;;;;;;;;5075328;28;20058;-47
2021/05/10 01:47:33;;;;;;;1.52;1.23;;;;;;;;;;5074541;28;20335;-47
2021/05/10 01:49:59;;;;;;;3.28;1.50;;;;;;;;;;5075311;28;20036;-47
2021/05/10 01:52:25;;;;;;;3.33;1.33;;;;;;;;;;5090862;28;20074;-47
2021/05/10 01:54:51;;;;;;;1.73;1.15;;;;;;;;;;5095458;28;20028;-46
2021/05/10 01:57:18;;;;;;;3.05;1.13;;;;;;;;;;5095279;28;20357;-47
2021/05/10 01:59:44;;;;;;;2.83;1.27;;;;;;;;;;5095117;28;20031;-47
2021/05/10 02:02:10;;;;;;;2.13;1.10;;;;;;;;;;5094700;28;20031;-47
2021/05/10 02:04:54;;;;;;;2.50;1.48;;;;;;;;;;5095209;28;20028;-47
2021/05/10 02:07:20;;;;;;;4.57;1.45;;;;;;;;;;5095072;28;20453;-47
2021/05/10 02:09:46;;;;;;;2.67;1.27;;;;;;;;;;5095151;28;20149;-47
2021/05/10 02:12:12;;;;;;;4.13;1.20;;;;;;;;;;5094747;28;20043;-46
2021/05/10 02:14:38;;;;;;;1.55;1.30;;;;;;;;;;5094848;28;20066;-47
2021/05/10 02:17:04;;;;;;;1.25;1.00;;;;;;;;;;5095250;28;20357;-47
2021/05/10 02:19:30;;;;;;;1.27;1.10;;;;;;;;;;5094791;28;20039;-47
2021/05/10 02:21:56;;;;;;;1.63;1.33;;;;;;;;;;5094826;28;20103;-47
2021/05/10 02:24:22;;;;;;;2.67;1.20;;;;;;;;;;5094769;28;20024;-47
2021/05/10 02:26:48;;;;;;;2.97;1.50;;;;;;;;;;5094740;28;20099;-47
2021/05/10 02:29:14;;;;;;;1.70;1.38;;;;;;;;;;5094380;28;20038;-47
2021/05/10 02:31:41;;;;;;;1.33;1.20;;;;;;;;;;5087262;28;20036;-47
2021/05/10 02:34:06;;;;;;;4.28;1.30;;;;;;;;;;5094837;28;20031;-46
2021/05/10 02:36:32;;;;;;;2.50;1.42;;;;;;;;;;5094518;28;20028;-47
2021/05/10 02:38:58;;;;;;;3.35;1.55;;;;;;;;;;5094578;28;20050;-47
2021/05/10 02:41:24;;;;;;;1.33;1.20;;;;;;;;;;5094130;28;20024;-47
2021/05/10 02:43:50;;;;;;;3.75;1.33;;;;;;;;;;5094439;28;20551;-47
2021/05/10 02:46:16;;;;;;;4.32;1.30;;;;;;;;;;5094461;28;20107;-47
2021/05/10 02:48:42;;;;;;;3.55;1.40;;;;;;;;;;5093192;28;20027;-47
2021/05/10 02:51:10;;;;;;;2.28;1.52;;;;;;;;;;5093551;28;20042;-47
2021/05/10 02:53:36;;;;;;;5.88;1.25;;;;;;;;;;5094361;28;20022;-48
2021/05/10 02:56:02;;;;;;;2.45;1.35;;;;;;;;;;5094162;28;20027;-47
2021/05/10 02:58:28;;;;;;;1.95;1.35;;;;;;;;;;5094153;28;20020;-47
2021/05/10 03:00:54;;;;;;;4.20;1.63;;;;;;;;;;5093973;28;20027;-46
2021/05/10 03:03:20;;;;;;;2.42;1.15;;;;;;;;;;5093992;28;20082;-47
2021/05/10 03:05:46;;;;;;;2.28;1.60;;;;;;;;;;5094153;28;20494;-47
2021/05/10 03:08:12;;;;;;;3.20;1.20;;;;;;;;;;5093807;28;20115;-47
2021/05/10 03:10:38;;;;;;;4.20;1.38;;;;;;;;;;5093749;28;20039;-47
2021/05/10 03:13:04;;;;;;;5.05;1.55;;;;;;;;;;5093639;28;20361;-47
2021/05/10 03:15:30;;;;;;;2.13;1.60;;;;;;;;;;5094327;28;20364;-47
2021/05/10 03:17:56;;;;;;;2.88;1.40;;;;;;;;;;5093619;28;20020;-47
2021/05/10 03:20:23;;;;;;;4.82;2.05;;;;;;;;;;5093825;28;20059;-47
2021/05/10 03:22:51;;;;;;;12.75;1.80;;;;;;;;;;5093880;28;20133;-47
2021/05/10 03:25:18;;;;;;;2.13;1.30;;;;;;;;;;5093948;28;20024;-47
2021/05/10 03:27:44;;;;;;;3.15;1.80;;;;;;;;;;5093279;28;20012;-47
2021/05/10 03:30:15;;;;;;;3.95;1.83;;;;;;;;;;5093408;28;20042;-47
2021/05/10 03:32:42;;;;;;;1.63;1.35;;;;;;;;;;5093857;28;20039;-47
2021/05/10 03:35:08;;;;;;;2.53;1.45;;;;;;;;;;5093685;28;20024;-48
2021/05/10 03:37:34;;;;;;;4.53;1.80;;;;;;;;;;5093533;28;20024;-47
2021/05/10 03:40:00;;;;;;;2.17;1.70;;;;;;;;;;5093571;28;20031;-48
2021/05/10 03:42:26;;;;;;;3.33;1.58;;;;;;;;;;5092894;28;20032;-47
2021/05/10 03:44:53;;;;;;;3.35;1.77;;;;;;;;;;5093571;28;20035;-47
2021/05/10 03:47:19;;;;;;;5.15;2.08;;;;;;;;;;5093725;28;20031;-47
2021/05/10 03:49:45;;;;;;;3.20;1.77;;;;;;;;;;5093585;28;20354;-47
2021/05/10 03:52:12;;;;;;;5.57;2.08;;;;;;;;;;5092362;28;20081;-47
2021/05/10 03:54:39;;;;;;;5.10;1.60;;;;;;;;;;5093554;28;20035;-47
2021/05/10 03:57:05;;;;;;;3.80;1.80;;;;;;;;;;5093498;28;20042;-47
2021/05/10 03:59:31;;;;;;;2.80;1.80;;;;;;;;;;5093389;28;20108;-47
2021/05/10 04:02:01;;;;;;;2.05;1.25;;;;;;;;;;5093110;28;20043;-47
2021/05/10 04:04:43;;;;;;;5.97;1.70;;;;;;;;;;5093576;28;20025;-47
2021/05/10 04:14:49;;;;;;;2.22;1.33;;;;;;;;;;5080747;28;20035;-47
2021/05/10 04:17:15;;;;;;;4.25;2.10;;;;;;;;;;5097100;28;20028;-47
2021/05/10 04:19:41;;;;;;;2.78;1.70;;;;;;;;;;5097209;28;20028;-46
2021/05/10 04:22:07;;;;;;;4.85;1.90;;;;;;;;;;5097025;28;20031;-47
2021/05/10 04:24:33;;;;;;;3.92;1.85;;;;;;;;;;5096926;28;20518;-48
2021/05/10 04:27:01;;;;;;;2.55;1.48;;;;;;;;;;5097366;28;20024;-47
2021/05/10 04:29:27;;;;;;;5.25;2.20;;;;;;;;;;5096982;28;20032;-47
2021/05/10 04:31:53;;;;;;;3.10;1.55;;;;;;;;;;5096584;28;20449;-47
2021/05/10 04:34:19;;;;;;;3.35;1.95;;;;;;;;;;5096711;28;20045;-47
2021/05/10 04:36:45;;;;;;;3.13;1.90;;;;;;;;;;5097288;28;20349;-47
2021/05/10 04:39:11;;;;;;;5.60;1.90;;;;;;;;;;5096474;28;20012;-47
2021/05/10 04:41:37;;;;;;;2.78;1.92;;;;;;;;;;5096799;28;20026;-47
2021/05/10 04:44:03;;;;;;;8.18;2.17;;;;;;;;;;5096852;28;20446;-47
2021/05/10 04:46:29;;;;;;;13.18;2.20;;;;;;;;;;5096780;28;20361;-47
2021/05/10 04:48:55;;;;;;;6.03;2.20;;;;;;;;;;5096137;28;20020;-47
2021/05/10 04:51:21;;;;;;;3.63;1.60;;;;;;;;;;5096467;28;20032;-46
2021/05/10 04:53:47;;;;;;;5.78;2.30;;;;;;;;;;5096752;28;20511;-47
2021/05/10 04:56:13;;;;;;;5.97;2.13;;;;;;;;;;5096877;28;20031;-47
2021/05/10 04:58:39;;;;;;;5.70;1.92;;;;;;;;;;5096300;28;20016;-46
2021/05/10 05:01:05;;;;;;;4.05;1.90;;;;;;;;;;5096805;28;20023;-46
2021/05/10 05:03:31;;;;;;;8.23;2.42;;;;;;;;;;5095842;28;20030;-47
2021/05/10 05:05:57;;;;;;;7.65;1.77;;;;;;;;;;5096703;28;20055;-47
2021/05/10 05:08:23;;;;;;;3.20;1.58;;;;;;;;;;5096380;28;20059;-46
2021/05/10 05:10:49;;;;;;;4.22;1.50;;;;;;;;;;5095842;28;20047;-46
2021/05/10 05:13:25;;;;;;;2.88;1.50;;;;;;;;;;5096594;28;20090;-46
2021/05/10 05:15:51;;;;;;;2.72;1.42;;;;;;;;;;5096233;28;20024;-46
2021/05/10 05:18:17;;;;;;;6.43;1.77;;;;;;;;;;5096296;28;20059;-46
2021/05/10 05:20:43;;;;;;;8.95;2.10;;;;;;;;;;5095607;28;20016;-46
2021/05/10 05:23:22;;;;;;;1.67;1.40;;;;;;;;;;5095572;28;20020;-46
2021/05/10 05:25:53;;;;;;;1.73;1.60;;;;;;;;;;5096322;28;20035;-46
2021/05/10 05:28:19;;;;;;;6.35;1.70;;;;;;;;;;5095332;28;20029;-46
2021/05/10 05:30:46;;;;;;;2.47;1.50;;;;;;;;;;5094931;28;20035;-47
2021/05/10 05:33:12;;;;;;;7.18;1.80;;;;;;;;;;5095971;28;20025;-46
2021/05/10 05:35:38;;;;;;;3.67;2.22;;;;;;;;;;5095907;28;20506;-47
2021/05/10 05:38:05;;;;;;;5.43;1.92;;;;;;;;;;5095742;28;20028;-46
2021/05/10 05:40:31;;;;;;;4.03;1.83;;;;;;;;;;5095343;28;20056;-46
2021/05/10 05:42:56;;;;;;;4.72;2.50;;;;;;;;;;5090126;28;20051;-46
2021/05/10 05:45:24;;;;;;;8.63;3.13;;;;;;;;;;5095438;28;20515;-46
2021/05/10 05:47:50;;;;;;;13.35;3.15;;;;;;;;;;5095597;28;20043;-46
2021/05/10 05:50:16;;;;;;;7.82;2.42;;;;;;;;;;5095273;28;20054;-46
2021/05/10 05:52:42;;;;;;;5.40;2.00;;;;;;;;;;5094883;28;20472;-46
2021/05/10 05:55:09;;;;;;;3.83;1.67;;;;;;;;;;5095291;28;20035;-46
2021/05/10 05:57:35;;;;;;;3.88;2.30;;;;;;;;;;5095363;28;20097;-46
2021/05/10 06:00:02;;;;;;;4.53;2.00;;;;;;;;;;5095203;28;20024;-46
2021/05/10 06:02:28;;;;;;;5.07;2.10;;;;;;;;;;5094197;28;20031;-46
2021/05/10 06:04:54;;;;;;;4.57;2.20;;;;;;;;;;5095317;28;20074;-46
2021/05/10 06:07:20;;;;;;;5.82;1.73;;;;;;;;;;5089488;28;20021;-46
2021/05/10 06:09:47;;;;;;;5.40;2.35;;;;;;;;;;5074817;28;20111;-46
2021/05/10 06:12:13;;;;;;;7.63;2.28;;;;;;;;;;5074400;28;20044;-47
2021/05/10 06:14:39;;;;;;;7.57;2.75;;;;;;;;;;5086741;28;20412;-46
2021/05/10 06:17:05;;;;;;;4.82;2.40;;;;;;;;;;5092775;28;20362;-47
2021/05/10 06:19:32;;;;;;;10.15;2.95;;;;;;;;;;5093701;28;20445;-47
2021/05/10 06:21:58;;;;;;;10.48;3.28;;;;;;;;;;5093359;28;20024;-47
2021/05/10 06:24:24;;;;;;;9.10;2.70;;;;;;;;;;5093762;28;20031;-47
2021/05/10 06:26:50;;;;;;;5.80;2.92;;;;;;;;;;5092996;28;20087;-46
2021/05/10 06:29:16;;;;;;;8.02;2.75;;;;;;;;;;5093459;28;20418;-45
2021/05/10 06:31:42;;;;;;;6.47;2.60;;;;;;;;;;5092365;28;20119;-46
2021/05/10 06:34:08;;;;;;;5.07;2.20;;;;;;;;;;5091192;28;20425;-47
2021/05/10 06:36:34;;;;;;;9.40;3.20;;;;;;;;;;5091522;28;20103;-47
2021/05/10 06:39:00;;;;;;;7.15;2.33;;;;;;;;;;5091541;28;20024;-47
2021/05/10 06:41:26;;;;;;;10.88;3.30;;;;;;;;;;5091660;28;20332;-46
2021/05/10 06:43:52;;;;;;;12.43;3.22;;;;;;;;;;5092442;28;20482;-46
2021/05/10 06:46:18;;;;;;;12.60;3.80;;;;;;;;;;5092338;28;20080;-47
2021/05/10 06:48:44;;;;;;;6.07;2.85;;;;;;;;;;5094290;28;20625;-46
2021/05/10 06:51:10;;;;;;;7.95;3.28;;;;;;;;;;5088198;28;20036;-46
2021/05/10 06:53:36;;;;;;;5.20;2.67;;;;;;;;;;5071071;28;20021;-47
2021/05/10 06:56:02;;;;;;;9.32;2.92;;;;;;;;;;5073767;28;20107;-46
2021/05/10 06:58:28;;;;;;;6.53;3.10;;;;;;;;;;5073861;28;20024;-47
2021/05/10 07:00:55;;;;;;;8.65;3.42;;;;;;;;;;5073209;28;20021;-46
2021/05/10 07:03:21;;;;;;;4.60;2.83;;;;;;;;;;5073804;28;20047;-46
2021/05/10 07:05:48;;;;;;;8.07;3.45;;;;;;;;;;5073993;28;20033;-46
2021/05/10 07:08:15;;;;;;;6.50;3.03;;;;;;;;;;5087128;28;20039;-46
2021/05/10 07:10:45;;;;;;;8.48;2.60;;;;;;;;;;5093263;28;20081;-46
2021/05/10 07:13:11;;;;;;;11.32;2.95;;;;;;;;;;5094220;28;20036;-46
2021/05/10 07:15:37;;;;;;;9.00;2.95;;;;;;;;;;5093939;28;20023;-46
2021/05/10 07:18:10;;;;;;;5.97;2.88;;;;;;;;;;5094251;28;20020;-47
2021/05/10 07:20:37;;;;;;;11.15;2.85;;;;;;;;;;5093656;28;20020;-46
2021/05/10 07:23:05;;;;;;;4.85;2.38;;;;;;;;;;5093396;28;20027;-46
2021/05/10 07:25:31;;;;;;;7.70;2.88;;;;;;;;;;5093874;28;20031;-46
2021/05/10 07:27:57;;;;;;;4.82;2.15;;;;;;;;;;5093766;28;20031;-47
2021/05/10 07:30:23;;;;;;;3.30;1.60;;;;;;;;;;5093457;28;20032;-46
2021/05/10 07:32:49;;;;;;;3.25;2.00;;;;;;;;;;5093528;28;20028;-46
2021/05/10 07:35:15;;;;;;;0.70;0.70;;;;;;;;;;5093501;28;20027;-46
2021/05/10 07:37:41;;;;;;;2.97;1.50;;;;;;;;;;5093491;28;20028;-46
2021/05/10 07:40:08;;;;;;;1.52;1.02;;;;;;;;;;5093277;28;20023;-46
2021/05/10 07:42:34;;;;;;;2.28;1.23;;;;;;;;;;5093320;28;20445;-45
2021/05/10 07:45:00;;;;;;;5.60;1.00;;;;;;;;;;5092629;28;20119;-46
2021/05/10 07:47:29;;;;;;;0.80;0.80;;;;;;;;;;5093602;28;20051;-45
2021/05/10 07:49:55;;;;;;;3.35;1.17;;;;;;;;;;5093258;28;20465;-46
2021/05/10 07:52:21;;;;;;;1.67;1.00;;;;;;;;;;5092499;28;20093;-46
2021/05/10 07:54:47;;;;;;;2.38;0.90;;;;;;;;;;5093435;28;20024;-46
2021/05/10 07:57:13;;;;;;;0.85;0.82;;;;;;;;;;5093503;28;20028;-47
2021/05/10 07:59:39;;;;;;;1.88;1.05;;;;;;;;;;5091891;28;20038;-47
2021/05/10 08:02:06;;;;;;;1.25;0.90;;;;;;;;;;5092749;28;20028;-46
2021/05/10 08:04:32;;;;;;;1.02;1.00;;;;;;;;;;5093824;28;20024;-47
2021/05/10 08:06:58;;;;;;;5.30;1.10;;;;;;;;;;5090195;28;20024;-47
2021/05/10 08:09:24;;;;;;;1.98;1.00;;;;;;;;;;5072788;28;20446;-46
2021/05/10 08:11:50;;;;;;;3.13;1.15;;;;;;;;;;5072879;28;20036;-47
2021/05/10 08:14:17;;;;;;;5.28;1.48;;;;;;;;;;5073306;28;20081;-46
2021/05/10 08:16:44;;;;;;;1.42;0.80;;;;;;;;;;5072847;28;20017;-46
2021/05/10 08:19:12;;;;;;;1.58;0.90;;;;;;;;;;5072785;28;20363;-46
2021/05/10 08:21:39;;;;;;;2.83;0.60;;;;;;;;;;5072723;28;20166;-46
2021/05/10 08:24:05;;;;;;;2.92;1.05;;;;;;;;;;5073112;28;20036;-46
2021/05/10 08:26:31;;;;;;;11.77;1.40;;;;;;;;;;5073066;28;20082;-46
2021/05/10 08:28:57;;;;;;;2.85;1.23;;;;;;;;;;5092238;28;20400;-46
2021/05/10 08:31:23;;;;;;;0.77;0.77;;;;;;;;;;5092680;28;20044;-47
2021/05/10 08:33:50;;;;;;;0.85;0.63;;;;;;;;;;5092848;28;20073;-46
2021/05/10 08:36:17;;;;;;;1.55;0.68;;;;;;;;;;5092993;28;20036;-46
2021/05/10 08:38:43;;;;;;;1.02;0.60;;;;;;;;;;5093015;28;20051;-46
2021/05/10 08:41:09;;;;;;;0.80;0.80;;;;;;;;;;5092588;28;20024;-46
2021/05/10 08:43:36;;;;;;;3.10;0.80;;;;;;;;;;5093217;28;20097;-46
2021/05/10 08:46:05;;;;;;;0.50;0.50;;;;;;;;;;5092678;28;20027;-46
2021/05/10 08:48:31;;;;;;;0.40;0.40;;;;;;;;;;5092160;28;20530;-46
2021/05/10 08:50:57;;;;;;;1.10;0.57;;;;;;;;;;5092178;28;20028;-46
2021/05/10 08:53:39;;;;;;;1.90;1.08;;;;;;;;;;5093089;28;20025;-46
2021/05/10 08:56:06;;;;;;;0.20;0.20;;;;;;;;;;5093017;28;20020;-46
2021/05/10 08:58:39;;;;;;;2.88;0.73;;;;;;;;;;5096734;28;20080;-46
2021/05/10 09:01:05;;;;;;;1.38;0.98;;;;;;;;;;5095527;28;20472;-46
2021/05/10 09:03:41;;;;;;;0.47;0.47;;;;;;;;;;5095845;28;20039;-46
2021/05/10 09:06:13;;;;;;;0.30;0.30;;;;;;;;;;5095892;28;20028;-46
2021/05/10 09:08:43;;;;;;;3.75;0.90;;;;;;;;;;5093663;28;20028;-46
2021/05/10 09:11:12;;;;;;;1.98;1.13;;;;;;;;;;5095669;28;20031;-46
2021/05/10 09:13:41;;;;;;;1.88;0.75;;;;;;;;;;5096023;28;20353;-46
2021/05/10 09:16:07;;;;;;;9.35;1.00;;;;;;;;;;5095931;28;20044;-46
2021/05/10 09:18:33;;;;;;;2.75;1.02;;;;;;;;;;5096387;28;20028;-45
2021/05/10 09:21:09;;;;;;;2.00;0.80;;;;;;;;;;5096028;28;20074;-46
2021/05/10 09:23:35;;;;;;;4.18;1.00;;;;;;;;;;5096189;28;20028;-46
2021/05/10 09:26:02;;;;;;;3.03;0.60;;;;;;;;;;5095578;28;20108;-46
2021/05/10 09:28:28;;;;;;;1.15;0.90;;;;;;;;;;5095705;28;20512;-46
2021/05/10 09:30:55;;;;;;;1.35;0.93;;;;;;;;;;5096034;28;20124;-46
2021/05/10 09:33:23;;;;;;;0.70;0.70;;;;;;;;;;5095521;28;20024;-47
2021/05/10 09:35:50;;;;;;;0.95;0.70;;;;;;;;;;5095969;28;20036;-46
2021/05/10 09:38:19;;;;;;;2.67;0.85;;;;;;;;;;5096114;28;20103;-46
2021/05/10 09:40:52;;;;;;;2.05;0.70;;;;;;;;;;5095221;28;20388;-46
2021/05/10 09:43:20;;;;;;;0.77;0.75;;;;;;;;;;5095101;28;20043;-46
2021/05/10 09:45:50;;;;;;;0.40;0.40;;;;;;;;;;5095976;28;20027;-46
2021/05/10 09:48:21;;;;;;;1.35;0.82;;;;;;;;;;5094617;28;20028;-46
2021/05/10 09:50:50;;;;;;;1.25;0.60;;;;;;;;;;5095060;28;20040;-46
2021/05/10 09:53:20;;;;;;;1.75;0.60;;;;;;;;;;5095095;28;20039;-47
2021/05/10 09:55:57;;;;;;;1.42;0.70;;;;;;;;;;5095876;28;20028;-46
2021/05/10 09:58:24;;;;;;;0.98;0.80;;;;;;;;;;5095307;28;20472;-47
2021/05/10 10:00:55;;;;;;;2.72;0.63;;;;;;;;;;5095109;28;20445;-46
2021/05/10 10:03:30;;;;;;;1.92;0.90;;;;;;;;;;5095214;28;20035;-46
2021/05/10 10:05:57;;;;;;;6.05;0.93;;;;;;;;;;5095629;28;20040;-46
2021/05/10 10:08:23;;;;;;;1.08;0.80;;;;;;;;;;5079931;28;20230;-47
2021/05/10 10:10:49;;;;;;;1.20;1.10;;;;;;;;;;5074798;28;20111;-46
2021/05/10 10:13:16;;;;;;;1.73;0.95;;;;;;;;;;5074735;28;20028;-46
2021/05/10 10:15:42;;;;;;;0.70;0.40;;;;;;;;;;5074895;28;20024;-46
2021/05/10 10:18:12;;;;;;;0.95;0.68;;;;;;;;;;5074626;28;20082;-46
2021/05/10 10:20:39;;;;;;;0.60;0.52;;;;;;;;;;5074488;28;20048;-46
2021/05/10 10:23:08;;;;;;;0.60;0.60;;;;;;;;;;5074887;28;20030;-46
2021/05/10 10:25:36;;;;;;;6.15;0.68;;;;;;;;;;5086629;28;20457;-46
2021/05/10 10:28:03;;;;;;;1.00;1.00;;;;;;;;;;5094370;28;20152;-47
2021/05/10 10:30:31;;;;;;;2.13;1.10;;;;;;;;;;5094176;28;20039;-46
2021/05/10 10:32:59;;;;;;;5.40;0.80;;;;;;;;;;5094488;28;20068;-46
2021/05/10 10:35:25;;;;;;;0.30;0.30;;;;;;;;;;5095092;28;20035;-48
2021/05/10 10:37:52;;;;;;;3.63;0.95;;;;;;;;;;5094341;28;20059;-46
2021/05/10 10:40:23;;;;;;;0.60;0.60;;;;;;;;;;5094418;28;20024;-46
2021/05/10 10:42:49;;;;;;;2.03;1.00;;;;;;;;;;5094608;28;20273;-46
2021/05/10 10:45:21;;;;;;;0.70;0.70;;;;;;;;;;5094168;28;20052;-46
2021/05/10 10:47:57;;;;;;;2.58;1.00;;;;;;;;;;5094407;28;20016;-47
2021/05/10 10:50:24;;;;;;;1.17;1.08;;;;;;;;;;5094528;28;20028;-46
2021/05/10 10:52:50;;;;;;;4.07;1.27;;;;;;;;;;5094225;28;20028;-46
2021/05/10 10:55:16;;;;;;;5.72;0.85;;;;;;;;;;5094153;28;20464;-47
2021/05/10 10:57:42;;;;;;;1.40;0.82;;;;;;;;;;5093873;28;20441;-46
2021/05/10 11:00:09;;;;;;;3.00;1.60;;;;;;;;;;5094350;28;20012;-46
2021/05/10 11:02:47;;;;;;;1.40;0.90;;;;;;;;;;5094155;28;20024;-46
2021/05/10 11:05:21;;;;;;;2.10;1.13;;;;;;;;;;5094162;28;20032;-47
2021/05/10 11:08:09;;;;;;;2.72;0.95;;;;;;;;;;5084473;28;20440;-46
2021/05/10 11:10:47;;;;;;;2.63;1.20;;;;;;;;;;5073501;28;20107;-46
2021/05/10 11:13:39;;;;;;;1.08;0.90;;;;;;;;;;5073528;28;20389;-47
2021/05/10 11:16:09;;;;;;;1.77;1.13;;;;;;;;;;5073283;28;20043;-47
2021/05/10 11:18:38;;;;;;;1.48;1.35;;;;;;;;;;5073150;28;20032;-46
2021/05/10 11:21:10;;;;;;;5.30;1.30;;;;;;;;;;5073202;28;20519;-47
2021/05/10 11:23:37;;;;;;;1.67;0.90;;;;;;;;;;5073703;28;20024;-46
2021/05/10 11:26:07;;;;;;;2.45;1.27;;;;;;;;;;5073919;28;20572;-47
2021/05/10 11:28:33;;;;;;;6.68;1.83;;;;;;;;;;5089539;28;20476;-46
2021/05/10 11:31:02;;;;;;;3.45;1.70;;;;;;;;;;5093121;28;20115;-46
2021/05/10 11:33:47;;;;;;;2.88;1.42;;;;;;;;;;5093813;28;20027;-46
2021/05/10 11:36:39;;;;;;;2.72;1.20;;;;;;;;;;5093641;28;20020;-46
2021/05/10 11:39:06;;;;;;;5.15;1.63;;;;;;;;;;5093156;28;20074;-46
2021/05/10 11:41:41;;;;;;;2.85;1.25;;;;;;;;;;5093304;28;20031;-47
2021/05/10 11:44:08;;;;;;;2.25;1.40;;;;;;;;;;5093423;28;20020;-46
2021/05/10 11:46:34;;;;;;;2.60;1.70;;;;;;;;;;5093776;28;20021;-47
2021/05/10 11:49:00;;;;;;;3.38;1.65;;;;;;;;;;5093535;28;20330;-47
2021/05/10 11:51:26;;;;;;;3.42;1.42;;;;;;;;;;5093346;28;20036;-46
2021/05/10 11:53:59;;;;;;;2.85;1.63;;;;;;;;;;5093270;28;20028;-46
2021/05/10 11:56:26;;;;;;;6.55;1.70;;;;;;;;;;5093622;28;20031;-46
2021/05/10 11:59:21;;;;;;;2.08;1.55;;;;;;;;;;5093579;28;20051;-46
2021/05/10 12:01:42;;;;;;;2.10;1.73;;;;;;;;;;5092964;28;20066;-46
2021/05/10 12:04:18;;;;;;;2.70;1.58;;;;;;;;;;5093360;28;20031;-47
2021/05/10 12:06:44;;;;;;;2.25;1.67;;;;;;;;;;5093377;28;20028;-46
2021/05/10 12:09:29;;;;;;;2.60;1.58;;;;;;;;;;5093434;28;20451;-46
2021/05/10 12:11:55;;;;;;;4.82;1.60;;;;;;;;;;5093484;28;20064;-45
2021/05/10 12:14:22;;;;;;;9.32;1.55;;;;;;;;;;5092829;28;20028;-46
2021/05/10 12:17:07;;;;;;;5.78;1.60;;;;;;;;;;5093245;28;20031;-46
2021/05/10 12:19:51;;;;;;;7.90;1.67;;;;;;;;;;5093367;28;20028;-47
2021/05/10 12:22:18;;;;;;;15.35;2.08;;;;;;;;;;5093021;28;20031;-47
2021/05/10 12:24:57;;;;;;;5.10;1.90;;;;;;;;;;5093113;28;20016;-47
2021/05/10 12:27:24;;;;;;;4.45;2.00;;;;;;;;;;5092793;28;20023;-46
2021/05/10 12:29:51;;;;;;;4.72;2.03;;;;;;;;;;5092617;28;20365;-47
2021/05/10 12:32:17;;;;;;;4.22;2.10;;;;;;;;;;5095116;28;20035;-47
2021/05/10 12:34:44;;;;;;;6.28;2.17;;;;;;;;;;5097317;28;20028;-47
2021/05/10 12:37:10;;;;;;;3.42;2.33;;;;;;;;;;5097160;28;20016;-47
2021/05/10 12:39:37;;;;;;;7.18;1.75;;;;;;;;;;5096951;28;20445;-47
2021/05/10 12:42:17;;;;;;;3.70;1.67;;;;;;;;;;5096741;28;20028;-47
2021/05/10 12:44:43;;;;;;;3.00;2.00;;;;;;;;;;5097067;28;20061;-47
2021/05/10 12:47:09;;;;;;;4.40;1.40;;;;;;;;;;5096667;28;20353;-46
2021/05/10 12:49:43;;;;;;;9.55;1.63;;;;;;;;;;5096771;28;20521;-47
2021/05/10 12:52:09;;;;;;;6.78;2.08;;;;;;;;;;5082452;28;20051;-46
2021/05/10 12:54:41;;;;;;;2.50;1.45;;;;;;;;;;5076515;28;20433;-46
2021/05/10 12:57:07;;;;;;;1.75;1.20;;;;;;;;;;5076249;28;20408;-47
2021/05/10 12:59:47;;;;;;;3.55;1.00;;;;;;;;;;5076529;28;20020;-46
2021/05/10 13:02:20;;;;;;;1.35;1.10;;;;;;;;;;5076132;28;20154;-46
2021/05/10 13:04:47;;;;;;;2.00;1.05;;;;;;;;;;5075002;28;20028;-46
2021/05/10 13:07:13;;;;;;;2.30;0.90;;;;;;;;;;5080825;28;20402;-46
2021/05/10 13:09:39;;;;;;;4.03;1.13;;;;;;;;;;5096306;28;20031;-46
2021/05/10 13:12:09;;;;;;;1.92;1.05;;;;;;;;;;5095739;28;20036;-46
2021/05/10 13:14:41;;;;;;;1.10;0.93;;;;;;;;;;5096355;28;20054;-46
2021/05/10 13:36:31;;;;;;;3.90;1.15;;;;;;;;;;5080030;28;20032;-46
2021/05/10 13:38:58;;;;;;;2.50;1.02;;;;;;;;;;5078946;28;20020;-46
2021/05/10 13:41:28;;;;;;;1.52;1.02;;;;;;;;;;5095816;28;20039;-47
2021/05/10 13:46:26;;;;;;;1.83;0.98;;;;;;;;;;5095587;28;20056;-46
2021/05/10 13:48:53;;;;;;;6.32;0.95;;;;;;;;;;5095719;28;20382;-46
2021/05/10 13:51:19;;;;;;;3.00;1.65;;;;;;;;;;5095065;28;20449;-47
2021/05/10 13:53:45;;;;;;;3.28;2.38;;;;;;;;;;5095531;28;20051;-46
2021/05/10 13:56:12;;;;;;;4.03;1.00;;;;;;;;;;5095370;28;20465;-47
2021/05/10 13:58:41;;;;;;;0.82;0.70;;;;;;;;;;5095852;28;20349;-46
2021/05/10 14:01:08;;;;;;;2.40;1.00;;;;;;;;;;5095121;28;20026;-46
2021/05/10 14:03:34;;;;;;;2.25;0.80;;;;;;;;;;5095632;28;20051;-46
2021/05/10 14:06:00;;;;;;;2.25;1.00;;;;;;;;;;5095421;28;20369;-46
2021/05/10 14:08:26;;;;;;;7.60;1.10;;;;;;;;;;5094987;28;20440;-46
2021/05/10 14:10:51;;;;;;;2.28;0.98;;;;;;;;;;5094818;28;20038;-47
2021/05/10 14:13:19;;;;;;;2.25;1.20;;;;;;;;;;5095231;28;20075;-46
2021/05/10 14:15:45;;;;;;;4.22;0.80;;;;;;;;;;5094727;28;20454;-46
2021/05/10 14:18:13;;;;;;;1.17;0.98;;;;;;;;;;5095480;28;20107;-46
2021/05/10 14:23:24;;;;;;;2.42;0.80;;;;;;;;;;5095775;28;20336;-47
2021/05/10 14:25:50;;;;;;;1.08;0.95;;;;;;;;;;5094937;28;20091;-46
2021/05/10 14:28:16;;;;;;;3.10;1.05;;;;;;;;;;5094493;28;20090;-46
2021/05/10 14:30:42;;;;;;;0.95;0.95;;;;;;;;;;5094521;28;20028;-46
2021/05/10 14:33:08;;;;;;;1.25;0.85;;;;;;;;;;5094461;28;20100;-47
2021/05/10 14:35:34;;;;;;;1.42;0.95;;;;;;;;;;5094664;28;20028;-47
2021/05/10 14:38:00;;;;;;;1.58;1.05;;;;;;;;;;5094669;28;20023;-46
2021/05/10 14:40:26;;;;;;;2.67;0.90;;;;;;;;;;5094273;28;20016;-46
2021/05/10 14:42:52;;;;;;;3.53;0.80;;;;;;;;;;5094436;28;20604;-46
2021/05/10 14:45:18;;;;;;;3.05;1.13;;;;;;;;;;5093277;28;20047;-46
2021/05/10 14:47:44;;;;;;;1.38;0.77;;;;;;;;;;5094997;28;20020;-46
2021/05/10 14:50:10;;;;;;;3.03;0.90;;;;;;;;;;5092197;28;20457;-46
2021/05/10 14:52:36;;;;;;;1.83;0.80;;;;;;;;;;5092752;28;20061;-47
2021/05/10 14:55:02;;;;;;;1.00;0.88;;;;;;;;;;5093612;28;20518;-47
2021/05/10 14:57:30;;;;;;;3.95;0.80;;;;;;;;;;5093895;28;20016;-47
2021/05/10 14:59:56;;;;;;;1.83;1.02;;;;;;;;;;5093581;28;20047;-46
2021/05/10 15:02:22;;;;;;;0.63;0.63;;;;;;;;;;5093424;28;20055;-47
2021/05/10 15:04:48;;;;;;;2.50;0.60;;;;;;;;;;5094531;28;20024;-47
2021/05/10 15:07:14;;;;;;;1.23;0.77;;;;;;;;;;5089416;28;20070;-46
2021/05/10 15:09:41;;;;;;;0.70;0.70;;;;;;;;;;5072617;28;20059;-45
2021/05/10 15:12:07;;;;;;;0.60;0.60;;;;;;;;;;5072403;28;20047;-46
2021/05/10 15:14:34;;;;;;;2.70;0.85;;;;;;;;;;5073695;28;20514;-46
2021/05/10 15:17:00;;;;;;;0.60;0.60;;;;;;;;;;5073816;28;20112;-47
2021/05/10 15:19:26;;;;;;;0.75;0.70;;;;;;;;;;5073919;28;20031;-46